Time;durP1;ratioP1;P1;durP2;ratioP2;P2;SDS_P1;SDS_P2;PMS_P1;PMS_P2;Temp;Humidity;BMP_temperature;BMP_pressure;BME280_temperature;BME280_humidity;BME280_pressure;Samples;Min_cycle;Max_cycle;Signal;HPM_P1;HPM_P2
2023/07/14 00:01:56;;;;;;;0.10;0.10;;;20.20;74.00;;;;;;5095227;28;20043;-79
2023/07/14 00:04:47;;;;;;;0.08;0.08;;;20.20;73.90;;;;;;5095842;28;20043;-79
2023/07/14 00:07:13;;;;;;;0.10;0.10;;;20.20;74.00;;;;;;5095105;28;20036;-80
2023/07/14 00:09:42;;;;;;;;;;;20.20;74.10;;;;;;5096269;28;20393;-79
2023/07/14 00:12:09;;;;;;;0.17;0.17;;;20.10;73.90;;;;;;5095061;28;20022;-80
2023/07/14 00:14:35;;;;;;;0.10;0.10;;;19.90;73.20;;;;;;5095534;28;20546;-81
2023/07/14 00:17:02;;;;;;;0.00;0.00;;;20.00;73.20;;;;;;5096290;28;20063;-80
2023/07/14 00:19:27;;;;;;;;;;;20.00;73.70;;;;;;5078997;28;20043;-80
2023/07/14 00:21:54;;;;;;;0.10;0.10;;;20.00;73.40;;;;;;5077787;28;19920;-80
2023/07/14 00:24:21;;;;;;;0.10;0.10;;;20.00;72.50;;;;;;5095215;28;20085;-80
2023/07/14 00:29:39;;;;;;;0.20;0.20;;;19.90;73.50;;;;;;5095475;28;20038;-80
2023/07/14 00:32:24;;;;;;;0.00;0.00;;;19.90;73.70;;;;;;5077606;28;20044;-80
2023/07/14 00:34:50;;;;;;;0.15;0.15;;;20.00;73.70;;;;;;5095024;28;20077;-80
2023/07/14 00:37:16;;;;;;;;;;;20.00;73.50;;;;;;5078046;28;20123;-80
2023/07/14 00:39:43;;;;;;;0.10;0.10;;;20.00;73.40;;;;;;5078092;28;20527;-80
2023/07/14 00:42:14;;;;;;;0.32;0.32;;;20.00;73.40;;;;;;5094249;28;20044;-80
2023/07/14 00:44:40;;;;;;;0.10;0.10;;;20.00;73.30;;;;;;5078024;28;20031;-80
2023/07/14 00:47:28;;;;;;;0.00;0.00;;;20.00;73.40;;;;;;5077181;28;20047;-80
2023/07/14 00:49:57;;;;;;;0.32;0.30;;;20.00;73.40;;;;;;5078049;28;20042;-80
2023/07/14 00:52:42;;;;;;;0.10;0.10;;;20.00;73.50;;;;;;5077135;28;20101;-79
2023/07/14 00:56:06;;;;;;;0.47;0.17;;;20.10;73.70;;;;;;5094598;28;20028;-79
2023/07/14 00:58:32;;;;;;;0.13;0.13;;;20.10;73.50;;;;;;5096374;28;20059;-80
2023/07/14 01:01:22;;;;;;;0.20;0.20;;;20.10;73.40;;;;;;5094198;28;20028;-79
2023/07/14 01:04:08;;;;;;;0.10;0.10;;;20.10;73.50;;;;;;5094654;28;20040;-79
2023/07/14 01:06:53;;;;;;;0.22;0.20;;;20.20;73.40;;;;;;5076964;28;20039;-80
2023/07/14 01:09:19;;;;;;;0.20;0.05;;;20.20;73.50;;;;;;5077588;28;20040;-79
2023/07/14 01:12:04;;;;;;;;;;;20.20;73.60;;;;;;5094071;28;20040;-79
2023/07/14 01:14:52;;;;;;;0.35;0.30;;;20.20;73.30;;;;;;5077451;28;20451;-79
2023/07/14 01:17:21;;;;;;;0.30;0.30;;;20.20;73.40;;;;;;5093860;28;20423;-80
2023/07/14 01:20:09;;;;;;;0.68;0.17;;;20.20;73.50;;;;;;5094347;28;20028;-79
2023/07/14 01:23:31;;;;;;;0.10;0.10;;;20.20;73.50;;;;;;5095575;28;20051;-79
2023/07/14 01:26:54;;;;;;;0.57;0.40;;;20.20;73.40;;;;;;5093608;28;20066;-80
2023/07/14 01:29:20;;;;;;;1.00;0.50;;;20.10;73.80;;;;;;5095369;28;20058;-79
2023/07/14 01:31:47;;;;;;;0.10;0.10;;;20.10;73.30;;;;;;5093490;28;20093;-80
2023/07/14 01:34:14;;;;;;;0.20;0.20;;;20.10;73.80;;;;;;5076920;28;20036;-78
2023/07/14 01:36:40;;;;;;;0.10;0.10;;;20.10;73.50;;;;;;5093415;28;20392;-79
2023/07/14 01:39:06;;;;;;;0.20;0.20;;;20.20;73.90;;;;;;5077045;28;20496;-79
2023/07/14 01:41:33;;;;;;;0.30;0.30;;;20.10;73.90;;;;;;5093055;28;20392;-79
2023/07/14 01:44:03;;;;;;;0.73;0.60;;;20.10;73.90;;;;;;5093814;28;20032;-79
2023/07/14 01:46:29;;;;;;;0.10;0.10;;;20.10;73.80;;;;;;5076328;28;20484;-79
2023/07/14 01:49:35;;;;;;;0.10;0.10;;;20.10;73.90;;;;;;5093907;28;20043;-79
2023/07/14 01:52:04;;;;;;;0.30;0.30;;;20.10;73.80;;;;;;5076027;28;20043;-79
2023/07/14 01:54:53;;;;;;;0.43;0.43;;;20.10;73.80;;;;;;5093767;28;20031;-79
2023/07/14 01:57:24;;;;;;;0.90;0.20;;;20.10;73.70;;;;;;5076106;28;20576;-78
2023/07/14 02:00:11;;;;;;;0.03;0.03;;;20.10;73.60;;;;;;5076555;28;20093;-79
2023/07/14 02:02:40;;;;;;;0.63;0.55;;;20.10;73.70;;;;;;5093433;28;20043;-79
2023/07/14 02:05:34;;;;;;;0.45;0.45;;;20.00;73.60;;;;;;5093113;28;20534;-79
2023/07/14 02:08:05;;;;;;;0.30;0.20;;;20.00;73.60;;;;;;5093595;28;20036;-81
2023/07/14 02:10:32;;;;;;;0.17;0.17;;;20.00;73.60;;;;;;5076066;28;20115;-78
2023/07/14 02:13:00;;;;;;;0.28;0.22;;;19.90;73.20;;;;;;5093036;28;20114;-79
2023/07/14 02:15:31;;;;;;;0.45;0.38;;;19.90;73.70;;;;;;5093006;28;20111;-81
2023/07/14 02:17:58;;;;;;;0.75;0.75;;;20.00;73.70;;;;;;5076402;28;20052;-82
2023/07/14 02:20:32;;;;;;;0.10;0.10;;;20.00;73.50;;;;;;5075797;28;20397;-78
2023/07/14 02:22:59;;;;;;;0.45;0.43;;;20.00;73.50;;;;;;5092538;28;20123;-82
2023/07/14 02:25:32;;;;;;;0.20;0.20;;;20.00;73.40;;;;;;5092746;28;20036;-80
2023/07/14 02:27:58;;;;;;;0.32;0.30;;;20.00;73.40;;;;;;5075823;28;20070;-82
2023/07/14 02:30:26;;;;;;;;;;;20.00;73.50;;;;;;5093315;28;20032;-79
2023/07/14 02:33:32;;;;;;;0.17;0.17;;;19.90;72.90;;;;;;5092782;28;19950;-78
2023/07/14 02:36:10;;;;;;;0.13;0.13;;;19.90;73.60;;;;;;5075359;28;20119;-78
2023/07/14 02:38:39;;;;;;;0.20;0.20;;;19.80;73.70;;;;;;5093102;28;20552;-79
2023/07/14 02:41:20;;;;;;;0.10;0.10;;;19.80;74.00;;;;;;5093372;28;20040;-79
2023/07/14 02:43:54;;;;;;;1.23;0.20;;;19.80;74.10;;;;;;5092655;28;20031;-78
2023/07/14 02:46:41;;;;;;;0.35;0.10;;;19.80;73.80;;;;;;5092201;28;20028;-79
2023/07/14 02:49:08;;;;;;;0.22;0.20;;;19.80;73.90;;;;;;5075701;28;20064;-79
2023/07/14 02:51:34;;;;;;;0.10;0.10;;;19.70;74.00;;;;;;5093239;28;20044;-82
2023/07/14 02:54:00;;;;;;;;;;;19.60;73.70;;;;;;5093207;28;20102;-79
2023/07/14 02:56:26;;;;;;;0.40;0.30;;;19.60;73.10;;;;;;5093057;28;19912;-82
2023/07/14 02:58:52;;;;;;;;;;;19.60;73.70;;;;;;5076108;28;20527;-78
2023/07/14 03:01:19;;;;;;;0.20;0.20;;;19.50;73.70;;;;;;5075107;28;19988;-79
2023/07/14 03:03:47;;;;;;;2.40;0.20;;;19.40;73.50;;;;;;5092520;28;20404;-79
2023/07/14 03:06:16;;;;;;;0.20;0.20;;;19.40;73.50;;;;;;5091643;28;20034;-79
2023/07/14 03:08:42;;;;;;;0.00;0.00;;;19.40;73.60;;;;;;5092503;28;20119;-78
2023/07/14 03:11:09;;;;;;;0.10;0.10;;;19.40;74.00;;;;;;5091582;28;20050;-79
2023/07/14 03:13:35;;;;;;;0.25;0.10;;;19.30;73.80;;;;;;5092350;28;20036;-79
2023/07/14 03:16:01;;;;;;;;;;;19.30;73.90;;;;;;5092052;28;20025;-79
2023/07/14 03:18:27;;;;;;;0.10;0.10;;;19.30;73.70;;;;;;5093696;28;19920;-80
2023/07/14 03:20:59;;;;;;;0.20;0.20;;;19.20;73.90;;;;;;5091600;28;20819;-80
2023/07/14 03:23:25;;;;;;;5.00;0.20;;;19.30;74.00;;;;;;5075046;28;20051;-78
2023/07/14 03:26:10;;;;;;;;;;;19.30;73.90;;;;;;5092129;28;20039;-79
2023/07/14 03:28:37;;;;;;;0.28;0.20;;;19.30;73.50;;;;;;5075235;28;19920;-80
2023/07/14 03:31:04;;;;;;;0.32;0.10;;;19.30;73.50;;;;;;5091539;28;20078;-79
2023/07/14 03:33:33;;;;;;;0.10;0.10;;;19.30;73.70;;;;;;5090916;28;20401;-79
2023/07/14 03:36:23;;;;;;;0.00;0.00;;;19.30;73.60;;;;;;5091206;28;20492;-79
2023/07/14 03:39:28;;;;;;;0.10;0.10;;;19.40;73.70;;;;;;5091887;28;20033;-79
2023/07/14 03:41:56;;;;;;;0.63;0.38;;;19.40;73.50;;;;;;5074426;28;20054;-80
2023/07/14 03:44:23;;;;;;;0.30;0.22;;;19.30;73.70;;;;;;5091842;28;20024;-80
2023/07/14 03:46:49;;;;;;;0.13;0.13;;;19.30;73.90;;;;;;5074248;28;20455;-79
2023/07/14 03:49:15;;;;;;;;;;;19.30;73.90;;;;;;5075532;28;20028;-79
2023/07/14 03:51:42;;;;;;;0.65;0.20;;;19.30;73.80;;;;;;5074317;28;19928;-80
2023/07/14 03:54:10;;;;;;;0.63;0.40;;;19.30;73.80;;;;;;5074696;28;20062;-80
2023/07/14 03:56:37;;;;;;;0.30;0.20;;;19.30;73.90;;;;;;5091183;28;20075;-80
2023/07/14 03:59:03;;;;;;;0.10;0.10;;;19.30;73.20;;;;;;5091683;28;20024;-79
2023/07/14 04:01:29;;;;;;;0.10;0.10;;;19.30;73.40;;;;;;5074144;28;20081;-79
2023/07/14 04:03:56;;;;;;;0.10;0.10;;;19.20;73.70;;;;;;5074663;28;20024;-77
2023/07/14 04:06:22;;;;;;;0.10;0.10;;;19.30;73.80;;;;;;5091137;28;20031;-81
2023/07/14 04:08:55;;;;;;;0.10;0.10;;;19.40;73.70;;;;;;5092773;28;20032;-78
2023/07/14 04:11:21;;;;;;;0.10;0.10;;;19.40;73.50;;;;;;5091038;28;20400;-79
2023/07/14 04:13:47;;;;;;;1.17;0.77;;;19.40;73.70;;;;;;5091276;28;20039;-78
2023/07/14 04:16:13;;;;;;;;;;;19.40;73.50;;;;;;5074460;28;20040;-79
2023/07/14 04:18:39;;;;;;;0.20;0.20;;;19.50;73.70;;;;;;5091642;28;20448;-79
2023/07/14 04:21:09;;;;;;;12.55;0.52;;;19.40;73.70;;;;;;5074212;28;20089;-80
2023/07/14 04:23:36;;;;;;;0.10;0.10;;;19.40;73.60;;;;;;5091439;28;20036;-79
2023/07/14 04:26:03;;;;;;;0.40;0.30;;;19.40;74.60;;;;;;5073960;28;20036;-78
2023/07/14 04:28:29;;;;;;;0.10;0.10;;;19.40;73.50;;;;;;5074469;28;20144;-80
2023/07/14 04:30:58;;;;;;;0.10;0.10;;;19.50;73.60;;;;;;5090864;28;20504;-82
2023/07/14 04:33:25;;;;;;;0.10;0.10;;;19.50;73.50;;;;;;5092439;28;20135;-79
2023/07/14 04:35:53;;;;;;;0.20;0.20;;;19.50;73.00;;;;;;5090872;28;20028;-79
2023/07/14 04:38:20;;;;;;;0.73;0.30;;;19.50;73.60;;;;;;5091510;28;20040;-78
2023/07/14 04:40:47;;;;;;;0.63;0.45;;;19.50;73.80;;;;;;5090581;28;20111;-78
2023/07/14 04:43:14;;;;;;;0.30;0.30;;;19.50;74.30;;;;;;5092510;28;20119;-77
2023/07/14 04:45:43;;;;;;;0.20;0.10;;;19.50;74.50;;;;;;5092630;28;20395;-78
2023/07/14 04:48:15;;;;;;;0.10;0.10;;;19.50;74.70;;;;;;5095047;28;20472;-80
2023/07/14 04:50:45;;;;;;;0.40;0.20;;;19.50;74.70;;;;;;5077718;28;20095;-79
2023/07/14 04:53:12;;;;;;;0.10;0.10;;;19.50;74.70;;;;;;5094421;28;20062;-82
2023/07/14 04:55:58;;;;;;;0.20;0.20;;;19.50;74.60;;;;;;5094321;28;20036;-82
2023/07/14 04:58:24;;;;;;;0.10;0.10;;;19.50;75.40;;;;;;5094847;28;20405;-81
2023/07/14 05:00:50;;;;;;;;;;;19.50;74.50;;;;;;5094996;28;20028;-80
2023/07/14 05:03:16;;;;;;;0.10;0.10;;;19.40;74.60;;;;;;5094651;28;19947;-83
2023/07/14 05:05:42;;;;;;;;;;;19.40;74.50;;;;;;5094849;28;20020;-78
2023/07/14 05:08:08;;;;;;;0.10;0.10;;;19.50;74.80;;;;;;5077662;28;20001;-78
2023/07/14 05:10:37;;;;;;;;;;;19.50;74.60;;;;;;5077693;28;20035;-79
2023/07/14 05:13:05;;;;;;;0.10;0.10;;;19.50;75.60;;;;;;5094264;28;19920;-80
2023/07/14 05:15:31;;;;;;;0.10;0.10;;;19.50;74.50;;;;;;5094026;28;20369;-81
2023/07/14 05:17:58;;;;;;;0.10;0.10;;;19.60;74.60;;;;;;5094303;28;20118;-82
2023/07/14 05:20:24;;;;;;;0.10;0.10;;;19.60;74.70;;;;;;5093852;28;20066;-78
2023/07/14 05:22:53;;;;;;;0.20;0.20;;;19.70;75.10;;;;;;5093941;28;20396;-78
2023/07/14 05:25:20;;;;;;;0.10;0.10;;;19.70;74.90;;;;;;5093625;28;20052;-79
2023/07/14 05:27:46;;;;;;;0.10;0.10;;;19.80;74.40;;;;;;5093964;28;20067;-78
2023/07/14 05:30:33;;;;;;;0.30;0.10;;;19.90;74.30;;;;;;5076703;28;20028;-81
2023/07/14 05:33:00;;;;;;;0.47;0.38;;;20.00;74.50;;;;;;5093783;28;20087;-80
2023/07/14 05:35:26;;;;;;;0.38;0.20;;;20.00;74.20;;;;;;5093392;28;20491;-78
2023/07/14 05:37:53;;;;;;;;;;;20.10;74.70;;;;;;5077425;28;20480;-79
2023/07/14 05:40:20;;;;;;;0.43;0.30;;;20.10;74.30;;;;;;5076690;28;19916;-79
2023/07/14 05:42:47;;;;;;;0.30;0.30;;;20.20;74.20;;;;;;5070232;28;20047;-78
2023/07/14 05:45:14;;;;;;;0.30;0.20;;;20.20;73.60;;;;;;5063658;28;20056;-80
2023/07/14 05:47:45;;;;;;;0.38;0.20;;;20.30;73.60;;;;;;5049848;28;20075;-80
2023/07/14 05:50:12;;;;;;;0.10;0.10;;;20.40;74.20;;;;;;5035700;28;20397;-80
2023/07/14 05:52:38;;;;;;;0.20;0.20;;;20.50;74.30;;;;;;5045990;28;20033;-79
2023/07/14 05:55:05;;;;;;;0.75;0.38;;;20.50;74.40;;;;;;5062497;28;20041;-77
2023/07/14 05:57:32;;;;;;;0.13;0.13;;;20.60;74.10;;;;;;5047114;28;20041;-80
2023/07/14 05:59:58;;;;;;;0.20;0.10;;;20.70;74.00;;;;;;5062164;28;20035;-79
2023/07/14 06:02:25;;;;;;;0.17;0.17;;;20.80;74.40;;;;;;5058153;28;20052;-79
2023/07/14 06:04:51;;;;;;;0.10;0.10;;;20.80;74.10;;;;;;5026918;28;20037;-79
2023/07/14 06:07:17;;;;;;;;;;;20.90;74.40;;;;;;5026921;28;20040;-82
2023/07/14 06:09:43;;;;;;;0.10;0.10;;;21.00;73.90;;;;;;5043346;28;19913;-78
2023/07/14 06:12:11;;;;;;;0.10;0.10;;;21.10;73.70;;;;;;5041846;28;20466;-78
2023/07/14 06:14:40;;;;;;;0.65;0.50;;;21.10;73.60;;;;;;5042473;28;20029;-78
2023/07/14 06:17:08;;;;;;;0.28;0.28;;;21.20;73.70;;;;;;5042030;28;20040;-78
2023/07/14 06:19:36;;;;;;;0.10;0.10;;;21.30;73.60;;;;;;5042990;28;20048;-81
2023/07/14 06:22:04;;;;;;;0.20;0.10;;;21.40;73.50;;;;;;5041482;28;20112;-78
2023/07/14 06:24:31;;;;;;;0.30;0.30;;;21.50;73.50;;;;;;5025765;28;20461;-77
2023/07/14 06:26:57;;;;;;;0.17;0.17;;;21.60;73.10;;;;;;5041368;28;20049;-78
2023/07/14 06:29:23;;;;;;;0.10;0.10;;;21.70;72.80;;;;;;5042278;28;20025;-78
2023/07/14 06:31:49;;;;;;;;;;;21.90;72.80;;;;;;5042573;28;20094;-78
2023/07/14 06:34:15;;;;;;;0.20;0.20;;;22.10;72.70;;;;;;5042971;28;20366;-80
2023/07/14 06:36:41;;;;;;;0.10;0.10;;;22.20;71.90;;;;;;5041284;28;20076;-79
2023/07/14 06:39:08;;;;;;;0.20;0.20;;;22.40;71.10;;;;;;5041758;28;20056;-78
2023/07/14 06:41:34;;;;;;;0.20;0.20;;;22.30;71.20;;;;;;5046042;28;20523;-78
2023/07/14 06:44:02;;;;;;;0.13;0.13;;;22.30;72.00;;;;;;5063924;28;20036;-79
2023/07/14 06:46:29;;;;;;;0.13;0.13;;;22.50;70.80;;;;;;5046133;28;20174;-79
2023/07/14 06:48:57;;;;;;;0.40;0.30;;;22.80;69.10;;;;;;5062095;28;20044;-82
2023/07/14 06:51:24;;;;;;;0.28;0.28;;;23.00;69.10;;;;;;5053420;28;20040;-79
2023/07/14 06:53:50;;;;;;;0.20;0.20;;;23.00;68.70;;;;;;5041624;28;20041;-80
2023/07/14 06:56:16;;;;;;;;;;;22.80;69.90;;;;;;5041454;28;20025;-81
2023/07/14 06:58:43;;;;;;;0.40;0.30;;;22.70;70.80;;;;;;5025776;28;19927;-79
2023/07/14 07:01:09;;;;;;;0.17;0.17;;;22.90;70.00;;;;;;5033539;28;20079;-80
2023/07/14 07:03:35;;;;;;;0.10;0.10;;;23.20;69.30;;;;;;5026521;28;20029;-77
2023/07/14 07:06:02;;;;;;;0.10;0.10;;;23.30;69.40;;;;;;5041669;28;20074;-79
2023/07/14 07:08:29;;;;;;;0.30;0.20;;;23.20;68.60;;;;;;5043417;28;20476;-80
2023/07/14 07:10:55;;;;;;;0.10;0.10;;;23.10;69.20;;;;;;5024531;28;20033;-86
2023/07/14 07:13:21;;;;;;;0.50;0.45;;;23.20;69.20;;;;;;5025940;28;20037;-84
2023/07/14 07:15:47;;;;;;;0.17;0.17;;;23.50;68.40;;;;;;5061604;28;20437;-88
2023/07/14 07:18:14;;;;;;;0.68;0.30;;;23.70;66.70;;;;;;5063031;28;20106;-86
2023/07/14 07:20:59;;;;;;;0.40;0.38;;;23.90;66.60;;;;;;5061523;28;20147;-81
2023/07/14 07:23:25;;;;;;;0.93;0.50;;;24.10;66.40;;;;;;5062795;28;20448;-80
2023/07/14 07:25:54;;;;;;;0.20;0.20;;;24.10;65.70;;;;;;5044784;28;20512;-85
2023/07/14 07:28:21;;;;;;;0.10;0.10;;;24.10;65.30;;;;;;5045119;28;20052;-86
2023/07/14 07:30:48;;;;;;;0.10;0.10;;;24.10;65.60;;;;;;5061207;28;20029;-78
2023/07/14 07:33:16;;;;;;;0.10;0.10;;;24.10;65.80;;;;;;5062817;28;20048;-78
2023/07/14 07:35:43;;;;;;;0.10;0.10;;;24.10;65.80;;;;;;5061270;28;20021;-86
2023/07/14 07:38:11;;;;;;;0.65;0.63;;;24.20;65.00;;;;;;5061817;28;20106;-88
2023/07/14 07:40:39;;;;;;;0.13;0.13;;;24.30;64.90;;;;;;5064114;28;20103;-88
2023/07/14 07:43:05;;;;;;;0.35;0.30;;;24.40;64.60;;;;;;5063751;28;20051;-87
2023/07/14 07:45:31;;;;;;;0.25;0.25;;;24.40;63.90;;;;;;5064261;28;20035;-77
2023/07/14 07:47:57;;;;;;;;;;;24.40;64.80;;;;;;5064837;28;20478;-87
2023/07/14 07:50:26;;;;;;;0.60;0.50;;;24.50;65.00;;;;;;5064503;28;19916;-81
2023/07/14 07:52:53;;;;;;;0.30;0.20;;;24.50;63.80;;;;;;5045183;28;20486;-82
2023/07/14 07:55:19;;;;;;;0.38;0.30;;;24.60;63.90;;;;;;5044258;28;20024;-79
2023/07/14 07:57:47;;;;;;;0.35;0.35;;;24.80;63.50;;;;;;5044626;28;20390;-78
2023/07/14 08:00:15;;;;;;;0.60;0.30;;;24.90;63.40;;;;;;5044395;28;20039;-79
2023/07/14 08:02:43;;;;;;;0.30;0.30;;;24.90;63.20;;;;;;5044864;28;20057;-91
2023/07/14 08:05:13;;;;;;;0.40;0.40;;;25.00;63.40;;;;;;5043895;28;20025;-87
2023/07/14 08:07:40;;;;;;;0.43;0.40;;;25.10;62.60;;;;;;5043990;28;20033;-78
2023/07/14 08:10:07;;;;;;;0.88;0.65;;;25.20;62.50;;;;;;5043874;28;20036;-88
2023/07/14 08:12:33;;;;;;;0.20;0.20;;;25.30;62.40;;;;;;5027418;28;20048;-80
2023/07/14 08:14:59;;;;;;;0.40;0.30;;;25.30;61.90;;;;;;5043451;28;20390;-81
2023/07/14 08:17:29;;;;;;;0.95;0.60;;;25.40;61.70;;;;;;5046097;28;20045;-87
2023/07/14 08:19:55;;;;;;;0.30;0.30;;;25.40;60.60;;;;;;5046430;28;20035;-79
2023/07/14 08:22:23;;;;;;;1.15;0.70;;;25.50;60.50;;;;;;5049281;28;20033;-89
2023/07/14 08:24:49;;;;;;;0.43;0.35;;;25.60;60.50;;;;;;5061980;28;20036;-81
2023/07/14 08:27:16;;;;;;;0.80;0.40;;;25.50;58.60;;;;;;5047905;28;20049;-88
2023/07/14 08:29:42;;;;;;;0.85;0.50;;;25.50;58.80;;;;;;5048228;28;20059;-88
2023/07/14 08:32:09;;;;;;;0.65;0.50;;;25.50;58.30;;;;;;5047607;28;20048;-87
2023/07/14 08:34:35;;;;;;;0.43;0.38;;;25.50;58.10;;;;;;5031672;28;20485;-87
2023/07/14 08:37:04;;;;;;;0.55;0.45;;;25.70;58.50;;;;;;5048049;28;20041;-84
2023/07/14 08:39:32;;;;;;;0.57;0.50;;;25.80;58.40;;;;;;5050388;28;20074;-80
2023/07/14 08:42:16;;;;;;;0.30;0.30;;;25.90;58.50;;;;;;5059258;28;20098;-87
2023/07/14 08:45:39;;;;;;;0.30;0.20;;;26.00;58.20;;;;;;5067943;28;20074;-77
2023/07/14 08:48:44;;;;;;;0.10;0.10;;;26.20;58.30;;;;;;5049180;28;20056;-80
2023/07/14 08:51:29;;;;;;;0.45;0.30;;;26.20;56.90;;;;;;5047083;28;20048;-79
2023/07/14 08:54:02;;;;;;;0.15;0.15;;;26.20;56.50;;;;;;5046947;28;20041;-79
2023/07/14 08:56:34;;;;;;;0.55;0.43;;;26.40;55.50;;;;;;5064019;28;20040;-90
2023/07/14 08:59:00;;;;;;;1.20;0.75;;;26.50;55.80;;;;;;5081373;28;20138;-88
2023/07/14 09:02:14;;;;;;;0.20;0.20;;;26.70;54.90;;;;;;5088064;28;20039;-79
2023/07/14 09:04:42;;;;;;;0.50;0.40;;;26.70;53.10;;;;;;5071594;28;20035;-89
2023/07/14 09:07:14;;;;;;;0.20;0.20;;;26.90;52.10;;;;;;5089464;28;20332;-89
2023/07/14 09:09:40;;;;;;;0.28;0.20;;;27.20;53.10;;;;;;5087549;28;20032;-79
2023/07/14 09:13:06;;;;;;;0.43;0.28;;;27.60;52.90;;;;;;5086972;28;20041;-90
2023/07/14 09:15:33;;;;;;;0.20;0.20;;;27.90;51.30;;;;;;5087140;28;20388;-89
2023/07/14 09:18:27;;;;;;;0.13;0.13;;;28.50;50.00;;;;;;5050287;28;20069;-79
2023/07/14 09:21:58;;;;;;;0.40;0.30;;;29.30;49.30;;;;;;5057077;28;20444;-88
2023/07/14 09:25:01;;;;;;;0.15;0.15;;;30.10;47.10;;;;;;5066790;28;20052;-78
2023/07/14 09:27:30;;;;;;;0.35;0.30;;;31.00;45.20;;;;;;5069831;28;20084;-91
2023/07/14 09:29:58;;;;;;;0.38;0.38;;;31.70;40.50;;;;;;5070151;28;20043;-87
2023/07/14 09:32:44;;;;;;;0.50;0.30;;;32.20;40.50;;;;;;5068394;28;20258;-89
2023/07/14 09:35:24;;;;;;;0.60;0.45;;;32.90;40.00;;;;;;5068289;28;20043;-79
2023/07/14 09:38:36;;;;;;;0.90;0.55;;;33.70;38.60;;;;;;5051894;28;20044;-89
2023/07/14 09:41:04;;;;;;;1.27;0.98;;;34.40;37.30;;;;;;5069291;28;20149;-89
2023/07/14 09:43:30;;;;;;;2.13;0.52;;;34.70;33.30;;;;;;5069011;28;20440;-89
2023/07/14 09:45:58;;;;;;;0.65;0.50;;;35.20;33.80;;;;;;5069333;28;20535;-89
2023/07/14 09:48:31;;;;;;;0.65;0.45;;;35.90;32.80;;;;;;5052153;28;20417;-87
2023/07/14 09:51:20;;;;;;;0.60;0.47;;;36.70;32.70;;;;;;5069830;28;20036;-81
2023/07/14 09:54:09;;;;;;;1.08;0.70;;;37.50;32.00;;;;;;5051170;28;20064;-85
2023/07/14 09:56:42;;;;;;;0.32;0.30;;;37.80;29.70;;;;;;5067724;28;20032;-86
2023/07/14 09:59:27;;;;;;;0.35;0.35;;;38.30;30.50;;;;;;5068004;28;20024;-86
2023/07/14 10:02:15;;;;;;;0.40;0.40;;;39.00;29.00;;;;;;5066976;28;20385;-80
2023/07/14 10:04:48;;;;;;;0.32;0.32;;;39.80;27.10;;;;;;5051474;28;20059;-84
2023/07/14 10:07:40;;;;;;;1.10;0.70;;;40.40;26.50;;;;;;5068471;28;20036;-84
2023/07/14 10:10:08;;;;;;;0.38;0.38;;;41.10;25.60;;;;;;5066935;28;20045;-79
2023/07/14 10:12:54;;;;;;;0.50;0.50;;;41.70;25.30;;;;;;5067273;28;20558;-80
2023/07/14 10:15:40;;;;;;;;;;;41.90;23.70;;;;;;5067912;28;20127;-80
2023/07/14 10:18:15;;;;;;;0.55;0.55;;;42.20;23.60;;;;;;5039853;28;20346;-84
2023/07/14 10:20:55;;;;;;;0.40;0.40;;;43.20;23.40;;;;;;5046839;28;20504;-84
2023/07/14 10:23:24;;;;;;;0.95;0.93;;;43.60;22.90;;;;;;5047100;28;20037;-79
2023/07/14 10:25:53;;;;;;;0.52;0.52;;;43.70;19.90;;;;;;5046321;28;20037;-83
2023/07/14 10:28:27;;;;;;;0.50;0.50;;;43.00;21.70;;;;;;5056621;28;20123;-84
2023/07/14 10:31:35;;;;;;;0.40;0.40;;;43.30;21.00;;;;;;5066584;28;20378;-84
2023/07/14 10:34:57;;;;;;;0.60;0.60;;;44.30;21.10;;;;;;5067808;28;20094;-79
2023/07/14 10:37:28;;;;;;;0.63;0.63;;;45.00;20.40;;;;;;5067136;28;20071;-80
2023/07/14 10:40:13;;;;;;;0.60;0.60;;;45.50;19.70;;;;;;5050305;28;20457;-83
2023/07/14 10:42:52;;;;;;;0.57;0.55;;;45.50;20.10;;;;;;5049843;28;20041;-79
2023/07/14 10:45:18;;;;;;;0.65;0.65;;;45.70;20.10;;;;;;5050025;28;20036;-79
2023/07/14 10:48:41;;;;;;;0.68;0.68;;;45.70;20.20;;;;;;5049565;28;20044;-79
2023/07/14 10:51:48;;;;;;;0.95;0.90;;;46.60;19.00;;;;;;5067368;28;20037;-79
2023/07/14 10:54:19;;;;;;;0.70;0.70;;;47.20;18.60;;;;;;5067467;28;20064;-83
2023/07/14 10:57:26;;;;;;;0.80;0.80;;;47.80;17.30;;;;;;5048736;28;20047;-80
2023/07/14 10:59:58;;;;;;;0.77;0.77;;;48.40;17.10;;;;;;5066097;28;20043;-79
2023/07/14 11:02:50;;;;;;;1.10;1.00;;;49.00;17.20;;;;;;5048894;28;20060;-80
2023/07/14 11:05:22;;;;;;;1.10;1.02;;;49.50;15.70;;;;;;5049134;28;20051;-83
2023/07/14 11:07:48;;;;;;;1.20;1.10;;;50.00;16.50;;;;;;5066028;28;20090;-79
2023/07/14 11:11:11;;;;;;;0.82;0.82;;;50.40;15.60;;;;;;5065219;28;20044;-84
2023/07/14 11:14:15;;;;;;;1.10;1.00;;;50.70;14.70;;;;;;5067927;28;20043;-83
2023/07/14 11:17:23;;;;;;;1.27;1.05;;;51.10;14.70;;;;;;5067265;28;20047;-84
2023/07/14 11:20:30;;;;;;;1.40;1.30;;;49.20;15.90;;;;;;5047003;28;20029;-84
2023/07/14 11:23:52;;;;;;;1.20;1.10;;;49.20;15.70;;;;;;5029080;28;20599;-79
2023/07/14 11:27:14;;;;;;;1.40;1.30;;;48.50;16.20;;;;;;5046101;28;20509;-79
2023/07/14 11:30:03;;;;;;;1.10;1.00;;;49.50;16.00;;;;;;5047286;28;20061;-79
2023/07/14 11:32:58;;;;;;;1.10;1.00;;;48.90;15.60;;;;;;5046442;28;20045;-83
2023/07/14 11:35:38;;;;;;;1.10;1.02;;;49.10;14.20;;;;;;5046567;28;20057;-82
2023/07/14 11:38:13;;;;;;;1.10;1.00;;;49.40;14.60;;;;;;5028842;28;20385;-79
2023/07/14 11:40:43;;;;;;;1.20;1.10;;;48.80;15.00;;;;;;5047351;28;20044;-79
2023/07/14 11:43:32;;;;;;;1.20;1.10;;;49.50;14.70;;;;;;5028734;28;20116;-80
2023/07/14 11:46:19;;;;;;;1.20;1.10;;;49.40;15.10;;;;;;5045026;28;20033;-84
2023/07/14 11:49:06;;;;;;;1.20;1.10;;;50.50;14.70;;;;;;5029028;28;20090;-83
2023/07/14 11:51:55;;;;;;;2.85;1.75;;;51.50;14.00;;;;;;5045055;28;20029;-83
2023/07/14 11:54:40;;;;;;;1.50;1.40;;;52.10;12.90;;;;;;5044740;28;20047;-80
2023/07/14 11:57:16;;;;;;;1.63;1.50;;;52.70;13.00;;;;;;5044819;28;20044;-80
2023/07/14 12:00:23;;;;;;;1.70;1.60;;;53.10;12.30;;;;;;5045326;28;20543;-80
2023/07/14 12:03:04;;;;;;;2.40;2.20;;;53.60;12.10;;;;;;5046837;28;20504;-79
2023/07/14 12:06:11;;;;;;;1.95;1.75;;;53.80;11.80;;;;;;5044531;28;20033;-79
2023/07/14 12:08:40;;;;;;;2.30;2.10;;;54.20;11.80;;;;;;5045532;28;20061;-79
2023/07/14 12:12:02;;;;;;;2.20;2.00;;;54.00;11.70;;;;;;5028115;28;20056;-85
2023/07/14 12:15:06;;;;;;;2.22;2.03;;;52.70;12.70;;;;;;5064804;28;20036;-82
2023/07/14 12:17:51;;;;;;;2.78;2.47;;;53.00;12.50;;;;;;5060220;28;20048;-83
2023/07/14 12:20:45;;;;;;;2.47;2.25;;;53.70;12.20;;;;;;5044900;28;20045;-82
2023/07/14 12:23:30;;;;;;;2.50;2.30;;;54.00;12.00;;;;;;5045006;28;20033;-82
2023/07/14 12:26:19;;;;;;;2.05;1.85;;;54.20;12.10;;;;;;5044628;28;20049;-78
2023/07/14 12:28:48;;;;;;;2.33;2.13;;;54.40;11.40;;;;;;5045107;28;20039;-79
2023/07/14 12:31:17;;;;;;;2.22;2.03;;;54.40;11.10;;;;;;5028021;28;20071;-80
2023/07/14 12:33:45;;;;;;;2.28;2.08;;;54.10;11.30;;;;;;5045117;28;20033;-82
2023/07/14 12:36:31;;;;;;;2.20;2.00;;;54.40;11.80;;;;;;5044910;28;20102;-81
2023/07/14 12:39:04;;;;;;;3.38;3.08;;;54.80;11.40;;;;;;5064140;28;20121;-79
2023/07/14 12:41:34;;;;;;;2.50;2.30;;;54.40;10.70;;;;;;5064741;28;20028;-82
2023/07/14 12:44:01;;;;;;;2.50;2.30;;;54.20;11.10;;;;;;5048519;28;20401;-83
2023/07/14 12:46:47;;;;;;;2.92;2.63;;;54.20;11.10;;;;;;5047585;28;20120;-79
2023/07/14 12:49:52;;;;;;;2.45;2.25;;;54.80;11.30;;;;;;5064873;28;20037;-79
2023/07/14 12:52:44;;;;;;;3.00;2.70;;;55.20;10.90;;;;;;5047771;28;20029;-80
2023/07/14 12:55:30;;;;;;;2.92;2.63;;;55.50;10.50;;;;;;5047570;28;20048;-82
2023/07/14 12:57:56;;;;;;;3.08;2.80;;;55.40;10.50;;;;;;5064608;28;20046;-78
2023/07/14 13:03:16;;;;;;;3.17;2.80;;;55.70;10.60;;;;;;5065167;28;20036;-79
2023/07/14 13:05:45;;;;;;;3.10;2.80;;;55.90;10.80;;;;;;5065154;28;20040;-83
2023/07/14 13:08:35;;;;;;;2.70;2.45;;;55.60;10.40;;;;;;5051863;28;20093;-79
2023/07/14 13:11:08;;;;;;;3.30;3.00;;;55.50;10.70;;;;;;5068800;28;20036;-82
2023/07/14 13:13:55;;;;;;;2.53;2.33;;;55.70;10.50;;;;;;5068203;28;20032;-78
2023/07/14 13:16:31;;;;;;;3.10;2.58;;;55.70;10.60;;;;;;5050918;28;20047;-79
2023/07/14 13:18:59;;;;;;;2.60;2.40;;;55.70;10.20;;;;;;5067723;28;20488;-79
2023/07/14 13:21:48;;;;;;;2.95;2.65;;;55.80;10.30;;;;;;5067242;28;20615;-82
2023/07/14 13:24:34;;;;;;;4.63;2.88;;;55.50;10.30;;;;;;5051181;28;20521;-79
2023/07/14 13:27:19;;;;;;;2.40;2.20;;;55.40;9.20;;;;;;5050430;28;20135;-83
2023/07/14 13:30:15;;;;;;;2.30;2.10;;;54.20;10.50;;;;;;5051682;28;20032;-79
2023/07/14 13:32:41;;;;;;;1.77;1.65;;;53.80;10.30;;;;;;5068814;28;20064;-79
2023/07/14 13:35:21;;;;;;;1.90;1.70;;;53.20;11.30;;;;;;5067615;28;20105;-80
2023/07/14 13:37:49;;;;;;;1.73;1.63;;;52.80;10.70;;;;;;5051121;28;20035;-82
2023/07/14 13:40:38;;;;;;;1.40;1.30;;;51.40;11.60;;;;;;5067504;28;20401;-83
2023/07/14 13:43:31;;;;;;;1.73;1.63;;;50.40;12.90;;;;;;5051042;28;20040;-79